createdAt,value
2022-12-12T00:01:29.613Z,95.60
2022-12-12T00:06:31.680Z,95.60
2022-12-12T00:11:33.556Z,95.80
2022-12-12T00:16:35.730Z,95.70
2022-12-12T00:21:38.922Z,96.00
2022-12-12T00:26:40.753Z,96.00
2022-12-12T00:31:42.550Z,96.00
2022-12-12T00:36:44.472Z,96.10
2022-12-12T00:41:46.574Z,96.00
2022-12-12T00:46:48.451Z,96.30
2022-12-12T00:51:50.369Z,96.40
2022-12-12T00:56:52.360Z,96.40
2022-12-12T01:01:54.178Z,96.50
2022-12-12T01:06:56.082Z,96.60
2022-12-12T01:11:57.894Z,96.70
2022-12-12T01:16:59.722Z,96.80
2022-12-12T01:22:04.208Z,97.00
2022-12-12T01:27:06.534Z,96.90
2022-12-12T01:32:08.435Z,96.80
2022-12-12T01:37:10.246Z,96.70
2022-12-12T01:42:17.550Z,96.80
2022-12-12T01:47:21.881Z,96.90
2022-12-12T01:52:28.641Z,97.20
2022-12-12T01:57:34.878Z,97.00
2022-12-12T02:02:37.958Z,96.90
2022-12-12T02:07:41.323Z,96.90
2022-12-12T02:12:43.199Z,96.80
2022-12-12T02:18:16.838Z,96.60
2022-12-12T02:23:44.737Z,96.40
2022-12-12T02:29:04.242Z,96.40
2022-12-12T02:34:18.225Z,95.80
2022-12-12T02:39:28.269Z,95.90
2022-12-12T02:44:39.020Z,95.50
2022-12-12T02:49:55.349Z,95.90
2022-12-12T02:54:57.650Z,95.80
2022-12-12T03:00:10.059Z,95.40
2022-12-12T03:05:50.286Z,95.40
2022-12-12T03:11:08.750Z,95.40
2022-12-12T03:16:19.656Z,95.10
2022-12-12T03:21:25.178Z,95.20
2022-12-12T03:26:30.534Z,95.40
2022-12-12T03:31:37.255Z,95.70
2022-12-12T03:36:44.930Z,95.80
2022-12-12T03:41:56.333Z,96.00
2022-12-12T03:47:03.865Z,96.20
2022-12-12T03:52:11.485Z,96.40
2022-12-12T03:57:20.922Z,96.20
2022-12-12T04:02:27.840Z,96.30
2022-12-12T04:07:41.777Z,96.40
2022-12-12T04:13:03.598Z,96.40
2022-12-12T04:18:11.541Z,96.50
2022-12-12T04:23:20.590Z,96.70
2022-12-12T04:28:22.840Z,96.70
2022-12-12T04:33:27.686Z,96.70
2022-12-12T04:38:29.661Z,96.60
2022-12-12T04:43:41.193Z,96.50
2022-12-12T04:48:44.104Z,96.60
2022-12-12T04:53:50.138Z,96.70
2022-12-12T04:58:51.954Z,97.00
2022-12-12T05:03:56.827Z,96.90
2022-12-12T05:08:59.042Z,97.00
2022-12-12T05:14:00.879Z,97.10
2022-12-12T05:19:02.686Z,97.30
2022-12-12T05:24:04.886Z,97.10
2022-12-12T05:29:07.781Z,96.80
2022-12-12T05:34:10.260Z,96.40
2022-12-12T05:39:12.062Z,96.30
2022-12-12T05:44:14.014Z,95.30
2022-12-12T05:49:15.824Z,94.70
2022-12-12T05:54:17.646Z,94.30
2022-12-12T05:59:19.440Z,93.80
2022-12-12T06:04:21.276Z,93.90
2022-12-12T06:09:23.343Z,93.90
2022-12-12T06:14:25.649Z,94.00
2022-12-12T06:19:27.569Z,93.90
2022-12-12T06:24:29.369Z,94.00
2022-12-12T06:29:31.334Z,94.00
2022-12-12T06:34:33.286Z,94.00
2022-12-12T06:39:35.296Z,94.20
2022-12-12T06:44:37.076Z,94.30
2022-12-12T06:49:48.422Z,94.40
2022-12-12T06:54:50.289Z,94.50
2022-12-12T06:59:52.165Z,94.60
2022-12-12T07:04:55.436Z,94.50
2022-12-12T07:09:57.301Z,94.50
2022-12-12T07:14:59.122Z,94.60
2022-12-12T07:20:00.935Z,94.50
2022-12-12T07:25:03.646Z,94.20
2022-12-12T07:30:06.641Z,94.10
2022-12-12T07:35:09.330Z,94.00
2022-12-12T07:40:12.349Z,94.20
2022-12-12T07:45:18.294Z,94.30
2022-12-12T07:50:21.137Z,94.20
2022-12-12T07:55:22.928Z,94.10
2022-12-12T08:00:24.856Z,93.70
2022-12-12T08:05:26.687Z,93.40
2022-12-12T08:10:28.610Z,93.20
2022-12-12T08:15:42.801Z,93.20
2022-12-12T08:20:44.605Z,93.70
2022-12-12T08:25:46.624Z,93.70
2022-12-12T08:30:50.131Z,93.40
2022-12-12T08:35:51.969Z,92.60
2022-12-12T08:40:53.780Z,92.10
2022-12-12T08:46:02.182Z,92.20
2022-12-12T08:51:04.113Z,92.20
2022-12-12T08:56:06.388Z,92.20
2022-12-12T09:01:12.980Z,91.50
2022-12-12T09:06:15.461Z,92.00
2022-12-12T09:11:17.641Z,91.10
2022-12-12T09:16:20.396Z,90.90
2022-12-12T09:21:22.758Z,90.80
2022-12-12T09:26:24.610Z,90.60
2022-12-12T09:31:26.569Z,90.00
2022-12-12T09:36:28.892Z,89.50
2022-12-12T09:41:31.775Z,89.90
2022-12-12T09:46:38.117Z,89.10
2022-12-12T09:51:42.489Z,88.80
2022-12-12T09:57:11.797Z,88.70
2022-12-12T10:02:50.882Z,88.60
2022-12-12T10:08:17.634Z,88.10
2022-12-12T10:13:23.896Z,86.60
2022-12-12T10:18:29.184Z,84.60
2022-12-12T10:23:35.830Z,85.10
2022-12-12T10:28:38.147Z,83.70
2022-12-12T10:33:47.145Z,82.90
2022-12-12T10:39:12.401Z,83.70
2022-12-12T10:44:47.395Z,84.40
2022-12-12T10:49:51.251Z,85.20
2022-12-12T10:54:57.144Z,86.40
2022-12-12T10:59:59.098Z,86.30
2022-12-12T11:05:17.629Z,86.00
2022-12-12T11:10:33.615Z,86.40
2022-12-12T11:15:44.675Z,87.60
2022-12-12T11:20:48.852Z,86.80
2022-12-12T11:25:58.693Z,86.20
2022-12-12T11:31:04.276Z,87.00
2022-12-12T11:36:06.876Z,88.80
2022-12-12T11:41:10.936Z,90.10
2022-12-12T11:46:15.884Z,91.40
2022-12-12T11:51:30.749Z,92.50
2022-12-12T11:56:41.429Z,93.30
2022-12-12T12:01:52.064Z,94.20
2022-12-12T12:07:00.718Z,94.30
2022-12-12T12:12:22.980Z,94.50
2022-12-12T12:17:47.903Z,95.00
2022-12-12T12:23:21.801Z,95.50
2022-12-12T12:28:26.676Z,96.10
2022-12-12T12:33:54.858Z,96.60
2022-12-12T12:39:08.914Z,96.40
2022-12-12T12:44:22.376Z,96.80
2022-12-12T12:49:35.281Z,97.70
2022-12-12T12:54:40.241Z,98.60
2022-12-12T12:59:44.972Z,99.20
2022-12-12T13:04:53.255Z,99.50
2022-12-12T13:10:02.441Z,99.80
2022-12-12T13:15:05.499Z,99.90
2022-12-12T13:20:16.787Z,99.90
2022-12-12T13:25:37.521Z,99.90
2022-12-12T13:30:48.500Z,99.90
2022-12-12T13:35:54.527Z,99.90
2022-12-12T13:41:00.465Z,99.90
2022-12-12T13:46:35.745Z,99.20
2022-12-12T13:51:40.638Z,99.10
2022-12-12T13:56:52.485Z,98.90
2022-12-12T14:02:36.284Z,99.20
2022-12-12T14:07:38.718Z,99.80
2022-12-12T14:12:40.718Z,99.90
2022-12-12T14:17:51.785Z,99.90
2022-12-12T14:22:59.609Z,99.90
2022-12-12T14:28:27.970Z,99.90
2022-12-12T14:33:45.209Z,99.90
2022-12-12T14:39:24.687Z,99.90
2022-12-12T14:44:35.202Z,99.90
2022-12-12T14:49:40.561Z,99.90
2022-12-12T14:54:42.464Z,99.90
2022-12-12T14:59:44.814Z,99.90
2022-12-12T15:04:51.085Z,99.90
2022-12-12T15:09:52.908Z,99.90
2022-12-12T15:14:56.698Z,99.90
2022-12-12T15:19:59.712Z,99.90
2022-12-12T15:25:04.545Z,99.90
2022-12-12T15:30:11.342Z,99.90
2022-12-12T15:35:19.226Z,99.90
2022-12-12T15:40:31.897Z,99.90
2022-12-12T15:45:36.382Z,99.90
2022-12-12T15:50:44.283Z,99.90
2022-12-12T15:56:13.669Z,99.90
2022-12-12T16:01:20.875Z,99.90
2022-12-12T16:06:38.235Z,99.90
2022-12-12T16:11:42.062Z,99.90
2022-12-12T16:16:46.208Z,99.90
2022-12-12T16:21:48.031Z,99.90
2022-12-12T16:26:50.297Z,99.90
2022-12-12T16:31:52.325Z,99.90
2022-12-12T16:36:54.191Z,99.90
2022-12-12T16:41:56.008Z,99.90
2022-12-12T16:46:57.901Z,99.90
2022-12-12T16:52:01.013Z,99.90
2022-12-12T16:57:02.961Z,99.90
2022-12-12T17:02:13.320Z,99.90
2022-12-12T17:07:15.397Z,99.90
2022-12-12T17:12:17.337Z,99.90
2022-12-12T17:17:19.400Z,99.90
2022-12-12T17:22:21.176Z,99.90
2022-12-12T17:27:22.956Z,99.90
2022-12-12T17:32:27.403Z,99.90
2022-12-12T17:37:29.436Z,99.90
2022-12-12T17:42:32.008Z,99.90
2022-12-12T17:47:34.247Z,99.90
2022-12-12T17:52:36.990Z,99.90
2022-12-12T17:57:38.866Z,99.90
2022-12-12T18:02:46.717Z,99.90
2022-12-12T18:07:48.564Z,99.90
2022-12-12T18:12:52.019Z,99.90
2022-12-12T18:17:54.240Z,99.90
2022-12-12T18:22:56.477Z,99.90
2022-12-12T18:27:59.784Z,99.90
2022-12-12T18:33:03.224Z,99.90
2022-12-12T18:38:05.223Z,99.90
2022-12-12T18:43:07.368Z,99.90
2022-12-12T18:48:09.829Z,99.90
2022-12-12T18:53:11.846Z,99.90
2022-12-12T18:58:13.650Z,99.90
2022-12-12T19:03:15.520Z,99.90
2022-12-12T19:08:20.255Z,99.90
2022-12-12T19:13:22.114Z,99.90
2022-12-12T19:18:24.232Z,99.90
2022-12-12T19:23:26.051Z,99.90
2022-12-12T19:28:28.468Z,99.90
2022-12-12T19:33:30.546Z,99.90
2022-12-12T19:38:35.162Z,99.90
2022-12-12T19:43:37.375Z,99.90
2022-12-12T19:48:39.685Z,99.90
2022-12-12T19:53:44.336Z,99.90
2022-12-12T19:58:46.486Z,99.90
2022-12-12T20:03:52.720Z,99.90
2022-12-12T20:09:00.045Z,99.90
2022-12-12T20:14:01.897Z,99.90
2022-12-12T20:19:03.894Z,99.90
2022-12-12T20:24:07.005Z,99.90
2022-12-12T20:29:11.077Z,99.90
2022-12-12T20:34:14.719Z,99.90
2022-12-12T20:39:19.374Z,99.90
2022-12-12T20:44:23.264Z,99.90
2022-12-12T20:49:28.649Z,99.90
2022-12-12T20:54:31.008Z,99.90
2022-12-12T20:59:35.357Z,99.90
2022-12-12T21:04:37.169Z,99.90
2022-12-12T21:09:39.073Z,99.90
2022-12-12T21:14:40.903Z,99.90
2022-12-12T21:19:43.098Z,99.90
2022-12-12T21:24:44.872Z,99.90
2022-12-12T21:29:46.660Z,99.90
2022-12-12T21:34:48.476Z,99.90
2022-12-12T21:39:52.492Z,99.90
2022-12-12T21:44:54.275Z,99.90
2022-12-12T21:49:56.240Z,99.90
2022-12-12T21:54:58.501Z,99.90
2022-12-12T22:00:00.297Z,99.90
2022-12-12T22:05:02.108Z,99.90
2022-12-12T22:10:10.446Z,99.90
2022-12-12T22:15:13.654Z,99.90
2022-12-12T22:20:16.388Z,99.90
2022-12-12T22:25:19.218Z,99.90
2022-12-12T22:30:24.031Z,99.90
2022-12-12T22:35:26.718Z,99.90
2022-12-12T22:40:31.372Z,99.90
2022-12-12T22:45:34.446Z,99.90
2022-12-12T22:50:36.297Z,99.90
2022-12-12T22:55:38.801Z,99.90
2022-12-12T23:00:40.592Z,99.90
2022-12-12T23:05:42.470Z,99.90
2022-12-12T23:10:44.309Z,99.90
2022-12-12T23:15:46.114Z,99.90
2022-12-12T23:20:47.901Z,99.90
2022-12-12T23:25:49.764Z,99.90
2022-12-12T23:30:51.559Z,99.90
2022-12-12T23:35:53.745Z,99.90
2022-12-12T23:40:55.602Z,99.90
2022-12-12T23:46:01.682Z,99.90
2022-12-12T23:51:04.074Z,99.90
2022-12-12T23:56:06.316Z,99.90
